createdAt,value
2022-12-08T00:03:22.242Z,19.27
2022-12-08T00:09:44.635Z,17.98
2022-12-08T00:15:46.487Z,17.67
2022-12-08T00:21:48.470Z,18.00
2022-12-08T00:27:50.338Z,18.55
2022-12-08T00:33:52.191Z,18.08
2022-12-08T00:39:54.087Z,18.77
2022-12-08T00:45:56.324Z,19.17
2022-12-08T00:51:58.389Z,18.52
2022-12-08T00:58:00.244Z,17.70
2022-12-08T01:04:11.832Z,18.20
2022-12-08T01:10:13.681Z,16.15
2022-12-08T01:16:34.734Z,16.48
2022-12-08T01:22:36.714Z,15.85
2022-12-08T01:28:38.870Z,14.90
2022-12-08T01:34:40.718Z,14.40
2022-12-08T01:40:42.710Z,15.43
2022-12-08T01:46:48.356Z,16.55
2022-12-08T01:52:59.415Z,16.50
2022-12-08T01:59:01.614Z,16.33
2022-12-08T02:05:03.890Z,15.68
2022-12-08T02:11:08.676Z,15.75
2022-12-08T02:17:45.289Z,16.08
2022-12-08T02:24:07.585Z,15.70
2022-12-08T02:30:12.665Z,16.73
2022-12-08T02:36:18.491Z,15.35
2022-12-08T02:42:30.729Z,15.80
2022-12-08T02:48:34.092Z,15.98
2022-12-08T02:54:36.678Z,16.48
2022-12-08T03:00:50.576Z,17.08
2022-12-08T03:07:07.539Z,16.92
2022-12-08T03:13:36.051Z,16.00
2022-12-08T03:19:40.888Z,15.45
2022-12-08T03:26:07.656Z,14.73
2022-12-08T03:32:22.641Z,15.07
2022-12-08T03:38:24.555Z,14.95
2022-12-08T03:44:26.424Z,14.25
2022-12-08T03:50:28.287Z,14.35
2022-12-08T03:56:34.633Z,15.07
2022-12-08T04:02:36.518Z,15.68
2022-12-08T04:08:38.589Z,14.60
2022-12-08T04:14:40.460Z,14.82
2022-12-08T04:20:44.714Z,14.50
2022-12-08T04:26:46.632Z,14.48
2022-12-08T04:32:48.497Z,14.23
2022-12-08T04:38:50.336Z,14.07
2022-12-08T04:44:52.118Z,13.20
2022-12-08T04:50:53.985Z,14.02
2022-12-08T04:56:55.905Z,13.60
2022-12-08T05:02:57.892Z,11.63
2022-12-08T05:08:59.737Z,12.13
2022-12-08T05:15:01.611Z,14.88
2022-12-08T05:21:05.045Z,15.90
2022-12-08T05:27:06.963Z,15.20
2022-12-08T05:33:08.853Z,15.25
2022-12-08T05:39:14.415Z,16.45
2022-12-08T05:45:16.273Z,18.48
2022-12-08T05:51:21.009Z,19.27
2022-12-08T05:57:22.831Z,18.25
2022-12-08T06:03:25.300Z,18.02
2022-12-08T06:09:27.245Z,18.80
2022-12-08T06:15:29.135Z,19.70
2022-12-08T06:21:31.119Z,18.35
2022-12-08T06:27:34.026Z,18.27
2022-12-08T06:33:36.350Z,16.50
2022-12-08T06:39:38.176Z,17.75
2022-12-08T06:45:41.485Z,16.83
2022-12-08T06:51:43.350Z,17.55
2022-12-08T06:57:45.355Z,17.92
2022-12-08T07:03:47.909Z,18.27
2022-12-08T07:09:49.939Z,18.50
2022-12-08T07:15:52.029Z,17.42
2022-12-08T07:21:53.958Z,18.17
2022-12-08T07:27:55.822Z,17.45
2022-12-08T07:33:58.221Z,18.17
2022-12-08T07:40:00.217Z,18.25
2022-12-08T07:46:02.113Z,19.73
2022-12-08T07:52:04.051Z,19.52
2022-12-08T07:58:05.992Z,16.50
2022-12-08T08:04:07.898Z,17.45
2022-12-08T08:10:11.215Z,17.13
2022-12-08T08:16:16.097Z,16.80
2022-12-08T08:22:18.135Z,19.17
2022-12-08T08:28:20.324Z,18.58
2022-12-08T08:34:22.231Z,18.23
2022-12-08T08:40:24.099Z,17.25
2022-12-08T08:46:26.059Z,19.00
2022-12-08T08:52:28.066Z,19.70
2022-12-08T08:58:29.879Z,19.02
2022-12-08T09:04:31.872Z,19.63
2022-12-08T09:10:33.906Z,18.45
2022-12-08T09:16:41.771Z,18.60
2022-12-08T09:22:44.150Z,17.25
2022-12-08T09:28:46.792Z,16.02
2022-12-08T09:34:52.143Z,15.57
2022-12-08T09:40:54.845Z,14.95
2022-12-08T09:46:58.367Z,14.65
2022-12-08T09:53:09.470Z,14.85
2022-12-08T09:59:34.553Z,14.65
2022-12-08T10:05:41.754Z,15.23
2022-12-08T10:12:26.134Z,15.13
2022-12-08T10:18:30.841Z,14.57
2022-12-08T10:24:39.490Z,14.57
2022-12-08T10:30:41.803Z,14.70
2022-12-08T10:37:09.532Z,14.82
2022-12-08T10:43:48.395Z,14.18
2022-12-08T10:50:21.289Z,13.40
2022-12-08T10:56:29.170Z,14.52
2022-12-08T11:02:31.256Z,13.40
2022-12-08T11:08:33.168Z,12.13
2022-12-08T11:14:46.989Z,11.48
2022-12-08T11:20:57.546Z,10.80
2022-12-08T11:27:06.496Z,10.90
2022-12-08T11:33:23.966Z,10.00
2022-12-08T11:39:28.353Z,8.02
2022-12-08T11:45:35.025Z,8.52
2022-12-08T11:51:48.724Z,6.30
2022-12-08T11:57:51.558Z,5.53
2022-12-08T12:04:23.027Z,4.80
2022-12-08T12:10:42.397Z,4.40
2022-12-08T12:24:44.053Z,3.33
2022-12-08T12:31:00.430Z,4.13
2022-12-08T12:37:10.371Z,4.78
2022-12-08T12:43:14.571Z,5.18
2022-12-08T12:49:43.623Z,4.72
2022-12-08T12:55:57.365Z,4.85
2022-12-08T13:01:59.304Z,5.63
2022-12-08T13:08:18.336Z,4.88
2022-12-08T13:14:35.693Z,4.90
2022-12-08T13:20:43.206Z,5.60
2022-12-08T13:26:46.186Z,5.78
2022-12-08T13:33:18.051Z,4.97
2022-12-08T13:39:26.771Z,4.90
2022-12-08T13:46:20.276Z,5.35
2022-12-08T13:58:28.355Z,3.40
2022-12-08T14:04:47.992Z,3.10
2022-12-08T14:11:00.198Z,4.50
2022-12-08T14:17:05.472Z,4.57
2022-12-08T14:23:08.256Z,4.95
2022-12-08T14:29:36.174Z,4.40
2022-12-08T14:35:39.008Z,4.50
2022-12-08T14:41:40.913Z,7.82
2022-12-08T14:47:42.947Z,7.07
2022-12-08T14:54:10.234Z,7.35
2022-12-08T15:00:20.936Z,10.10
2022-12-08T15:06:23.352Z,9.98
2022-12-08T15:12:31.806Z,8.65
2022-12-08T15:18:39.523Z,12.77
2022-12-08T15:24:41.422Z,12.00
2022-12-08T15:30:43.242Z,9.18
2022-12-08T15:36:45.833Z,8.25
2022-12-08T15:42:48.173Z,9.63
2022-12-08T15:48:53.665Z,9.05
2022-12-08T15:54:59.656Z,9.05
2022-12-08T16:01:01.566Z,11.52
2022-12-08T16:07:20.839Z,13.93
2022-12-08T16:13:56.865Z,11.48
2022-12-08T16:20:01.103Z,10.88
2022-12-08T16:26:24.120Z,13.35
2022-12-08T16:32:26.118Z,12.70
2022-12-08T16:38:28.023Z,14.85
2022-12-08T16:44:29.884Z,13.48
2022-12-08T16:50:35.041Z,12.43
2022-12-08T16:56:36.947Z,12.18
2022-12-08T17:02:38.801Z,13.43
2022-12-08T17:08:41.906Z,11.32
2022-12-08T17:14:44.111Z,11.02
2022-12-08T17:20:45.934Z,12.25
2022-12-08T17:26:47.807Z,13.60
2022-12-08T17:32:49.741Z,16.27
2022-12-08T17:38:51.561Z,14.23
2022-12-08T17:44:54.421Z,13.68
2022-12-08T17:50:56.329Z,14.32
2022-12-08T17:56:58.803Z,13.82
2022-12-08T18:03:01.251Z,17.25
2022-12-08T18:09:04.217Z,19.05
2022-12-08T18:15:08.596Z,15.73
2022-12-08T18:21:10.825Z,17.42
2022-12-08T18:27:12.872Z,18.83
2022-12-08T18:33:14.725Z,18.20
2022-12-08T18:39:35.713Z,16.45
2022-12-08T18:45:39.676Z,14.48
2022-12-08T18:51:43.915Z,15.05
2022-12-08T18:57:46.295Z,14.27
2022-12-08T19:04:11.953Z,13.43
2022-12-08T19:10:10.897Z,12.52
2022-12-08T19:16:13.718Z,11.73
2022-12-08T19:22:15.662Z,12.43
2022-12-08T19:28:17.629Z,12.02
2022-12-08T19:34:19.705Z,14.15
2022-12-08T19:40:40.055Z,13.68
2022-12-08T19:46:42.086Z,11.70
2022-12-08T19:52:44.630Z,13.40
2022-12-08T19:58:46.430Z,12.68
2022-12-08T20:04:48.289Z,12.15
2022-12-08T20:10:51.646Z,13.13
2022-12-08T20:16:53.657Z,12.23
2022-12-08T20:22:55.607Z,13.65
2022-12-08T20:28:57.431Z,13.52
2022-12-08T20:34:59.370Z,14.38
2022-12-08T20:41:01.249Z,14.95
2022-12-08T20:47:03.216Z,14.57
2022-12-08T20:53:05.376Z,13.25
2022-12-08T20:59:07.392Z,14.10
2022-12-08T21:05:09.534Z,14.25
2022-12-08T21:11:11.987Z,15.02
2022-12-08T21:17:14.082Z,15.35
2022-12-08T21:23:16.534Z,14.07
2022-12-08T21:29:18.567Z,13.07
2022-12-08T21:35:20.688Z,12.98
2022-12-08T21:41:42.885Z,12.43
2022-12-08T21:47:46.799Z,15.13
2022-12-08T21:53:48.761Z,17.23
2022-12-08T21:59:51.208Z,16.65
2022-12-08T22:05:53.121Z,17.27
2022-12-08T22:11:55.204Z,18.00
2022-12-08T22:17:57.370Z,16.92
2022-12-08T22:24:00.653Z,16.45
2022-12-08T22:30:03.984Z,13.48
2022-12-08T22:36:10.906Z,14.27
2022-12-08T22:42:13.210Z,14.23
2022-12-08T22:48:15.875Z,14.95
2022-12-08T22:54:17.962Z,14.55
2022-12-08T23:00:20.386Z,14.35
2022-12-08T23:06:22.855Z,14.15
2022-12-08T23:12:24.933Z,13.77
2022-12-08T23:18:26.918Z,13.70
2022-12-08T23:24:29.680Z,15.73
2022-12-08T23:30:31.619Z,15.10
2022-12-08T23:36:33.504Z,13.57
2022-12-08T23:42:35.677Z,14.65
2022-12-08T23:48:37.545Z,15.57
2022-12-08T23:54:40.020Z,16.55
